Sedgwick Reserve, California Weather observations

Data are for 10 minute period ending at time listed.
 Day   Time   Solar   Ave.   Ave.  Ave.  Vector  Max.   Baro.   Total    
  of    of     Rad.   Air    Rel.  Wind   Wind   Wind  Press.  Precip.   
Year   Day            Temp.  Hum.  Speed  Dir.   Gust                    
2014   (PST)  Kw/m2    F      %     mph   deg.    mph    mb.     in.     
-------------------------------------------------------------------------
 109   20:40   0.00   51.1    84    1.8    70     3.1   975.3    0.00 
 109   20:50   0.00   50.8    84    1.9    78     3.0   975.3    0.00 
 109   21:00   0.00   50.5    85    0.8    14     1.6   975.4    0.00 
 109   21:10   0.00   49.9    86    0.9   338     3.4   975.6    0.00 
 109   21:20   0.00   49.0    87    2.2   351     4.4   975.7    0.00 
 109   21:30   0.00   48.7    87    1.0   346     2.6   975.8    0.00 
 109   21:40   0.00   47.8    88    2.9     4     3.9   975.6    0.00 
 109   21:50   0.00   47.4    88    2.6   278     3.4   975.7    0.00 
 109   22:00   0.00   47.4    88    2.8   276     5.0   975.8    0.00 
 109   22:10   0.00   46.9    89    3.8     6     5.6   975.9    0.00 
 109   22:20   0.00   46.8    89    2.5     3     5.1   975.9    0.00 
 109   22:30   0.00   46.5    90    3.4   266     4.8   975.8    0.00 
 109   22:40   0.00   46.2    89    2.9   336     4.8   975.8    0.00 
 109   22:50   0.00   45.9    91    2.2   357     4.0   975.8    0.00 
 109   23:00   0.00   45.8    90    1.4   250     3.3   975.7    0.00 
 109   23:10   0.00   45.5    91    2.0   332     5.3   975.7    0.00 
 109   23:20   0.00   44.8    92    3.1     8     5.3   975.8    0.00 
 109   23:30   0.00   44.7    92    2.0   317     4.1   975.8    0.00 
 109   23:40   0.00   44.8    92    2.3   299     4.2   975.9    0.00 
 109   23:50   0.00   44.3    92    4.4     7     6.8   975.9    0.00 
 110    0:00   0.00   44.0    93    3.3   355     5.4   975.8    0.00 
 110    0:10   0.00   44.0    94    1.1   263     2.2   975.7    0.00 
 110    0:20   0.00   44.4    94    1.6   301     3.5   975.7    0.00 
 110    0:30   0.00   44.2    94    1.6   317     3.2   975.6    0.00 
 110    0:40   0.00   43.8    94    2.0     1     4.1   975.6    0.00 
 110    0:50   0.00   43.4    94    3.8   358     7.5   975.6    0.00 
 110    1:00   0.00   43.5    95    1.2   308     5.8   975.6    0.00 
 110    1:10   0.00   44.0    95    3.5   289     5.0   975.6    0.00 
 110    1:20   0.00   44.2    96    3.7   348     6.3   975.6    0.00 
 110    1:30   0.00   44.4    95    2.8   355     4.9   975.6    0.00 
 110    1:40   0.00   44.3    95    2.1   321     4.4   975.5    0.00 
 110    1:50   0.00   44.1    95    1.9   315     4.0   975.3    0.00 
 110    2:00   0.00   43.9    95    1.6   300     3.0   975.1    0.00 
 110    2:10   0.00   43.7    95    1.5   234     4.6   974.9    0.00 
 110    2:20   0.00   43.8    96    2.1   299     4.1   975.0    0.00 
 110    2:30   0.00   43.4    96    2.4    32     4.7   975.0    0.00 
 110    2:40   0.00   43.5    96    2.3   331     8.6   975.0    0.00 
 110    2:50   0.00   43.6    96    3.3   303     7.4   974.9    0.00 
 110    3:00   0.00   43.6    96    2.5   322     4.7   974.8    0.00 
 110    3:10   0.00   43.7    96    1.8   252     3.8   974.8    0.00 
 110    3:20   0.00   44.0    96    0.9    42     3.1   974.8    0.00 
 110    3:30   0.00   43.4    96    2.1   299     4.6   974.7    0.00 
 110    3:40   0.00   43.4    96    2.4   342     6.7   974.7    0.00 
 110    3:50   0.00   43.3    96    2.2   346     5.1   974.7    0.00 
 110    4:00   0.00   43.3    96    1.6   323     3.1   974.7    0.00 
 110    4:10   0.00   42.0    96    1.8   340     4.7   974.6    0.00 
 110    4:20   0.00   42.7    97    0.7    10     2.0   974.7    0.00 
 110    4:30   0.00   42.3    97    0.8   253     2.6   974.7    0.00 
 110    4:40   0.00   42.0    97    1.5   320     3.1   974.7    0.00 
 110    4:50   0.00   41.5    97    1.3   320     4.0   974.8    0.00 
 110    5:00   0.00   42.1    97    1.6     7     4.1   974.8    0.00 
 110    5:10   0.00   41.7    97    1.6   273     2.9   974.9    0.00 
 110    5:20   0.00   41.4    97    1.9   287     3.7   974.9    0.00 
 110    5:30   0.00   41.5    98    2.7     5     6.2   975.0    0.00 
 110    5:40   0.01   41.6    98    3.5     5     5.3   975.0    0.00 
 110    5:50   0.02   41.7    98    1.4   291     3.8   975.0    0.00 
 110    6:00   0.04   42.2    98    1.2   305     3.3   974.9    0.00 
 110    6:10   0.08   43.0    98    1.5   358     2.9   975.0    0.00 
 110    6:20   0.10   43.7    97    1.6   282     2.4   975.0    0.00 
 110    6:30   0.13   44.9    97    1.2   336     3.4   975.0    0.00 
 110    6:40   0.16   46.3    96    1.8   350     4.6   975.2    0.00 
 110    6:50   0.20   48.4    93    0.5   122     2.4   975.3    0.00 
 110    7:00   0.23   51.3    87    0.5    37     2.3   975.3    0.00 
 110    7:10   0.27   53.8    82    0.6    84     2.0   975.3    0.00 
 110    7:20   0.31   55.3    77    0.8   143     2.4   975.3    0.00 
 110    7:30   0.34   56.4    76    1.3   123     2.9   975.2    0.00 
 110    7:40   0.38   56.9    75    1.8   140     2.8   975.1    0.00 
 110    7:50   0.42   58.2    72    2.2   124     3.9   975.1    0.00 
 110    8:00   0.45   58.7    70    2.5   128     4.1   975.1    0.00 
 110    8:10   0.49   60.4    67    2.0   120     3.4   975.1    0.00 
 110    8:20   0.52   62.1    62    2.3   112     4.5   975.2    0.00 
 110    8:30   0.55   64.0    59    2.9   119     4.5   975.3    0.00 
 110    8:40   0.58   64.1    58    3.2   131     5.6   975.1    0.00 
 110    8:50   0.62   64.6    50    3.7   140     5.7   975.2    0.00 
 110    9:00   0.65   66.5    46    3.1   140     5.2   975.3    0.00 
 110    9:10   0.68   68.9    46    4.2   114     6.2   975.5    0.00 
 110    9:20   0.71   69.6    47    4.5   116     6.9   975.7    0.00 
 110    9:30   0.73   70.0    45    4.3   119     7.1   975.7    0.00 
 110    9:40   0.76   70.9    40    3.3   118     7.0   975.9    0.00 
 110    9:50   0.78   71.8    40    3.0   132     6.4   976.0    0.00 
 110   10:00   0.81   70.7    43    6.6   215    10.1   976.1    0.00 
 110   10:10   0.83   70.5    44    5.9   212    10.2   976.2    0.00 
 110   10:20   0.85   72.0    40    3.4   181     6.7   976.0    0.00 
 110   10:30   0.86   72.8    36    4.7   212     8.3   975.9    0.00 
 110   10:40   0.88   72.9    34    5.0   238     8.2   975.9    0.00 
 110   10:50   0.89   74.9    32    5.1   176     9.9   975.8    0.00 
 110   11:00   0.90   74.4    35    5.8   216     9.6   975.8    0.00 
 110   11:10   0.91   74.5    36    6.5   256    11.6   975.8    0.00 
 110   11:20   0.89   75.6    34    4.4   196    10.7   975.7    0.00 
 110   11:30   0.93   77.1    31    7.6   239    14.8   975.6    0.00 
 110   11:40   0.93   76.5    33    8.9   247    16.1   975.6    0.00 
 110   11:50   0.94   77.1    34    7.7   248    13.8   975.5    0.00 
 110   12:00   0.94   78.1    33    7.4   251    13.6   975.4    0.00 
 110   12:10   0.94   77.7    35   10.4   256    17.2   975.3    0.00 
 110   12:20   0.94   77.3    34    9.3   248    16.4   975.3    0.00 
 110   12:30   0.94   78.1    34    9.1   254    13.3   975.3    0.00 
 110   12:40   0.93   78.2    34    8.9   247    15.5   975.1    0.00 
 110   12:50   0.92   78.8    35    8.7   259    14.2   975.0    0.00 
 110   13:00   0.91   78.8    36    9.9   250    16.1   974.7    0.00 
 110   13:10   0.90   79.0    36   11.8   253    18.3   974.6    0.00 
 110   13:20   0.89   79.1    37    8.1   250    15.2   974.4    0.00 
 110   13:30   0.87   79.5    36   10.4   258    17.1   974.3    0.00 
 110   13:40   0.86   79.1    36   10.2   250    15.2   974.1    0.00 
 110   13:50   0.84   79.7    35    9.0   247    14.4   974.0    0.00 
 110   14:00   0.82   80.9    31    9.8   266    17.3   974.0    0.00 
 110   14:10   0.80   80.6    30   12.0   275    19.1   974.0    0.00 
 110   14:20   0.78   80.0    31   12.3   268    18.3   973.9    0.00 
 110   14:30   0.76   79.8    33   11.8   264    17.4   973.9    0.00 
 110   14:40   0.73   79.5    32   13.1   274    20.0   973.9    0.00 
 110   14:50   0.70   79.4    33   11.6   275    18.6   973.9    0.00 
 110   15:00   0.67   78.9    34   12.1   280    18.8   973.9    0.00 
 110   15:10   0.64   78.3    34   10.4   266    19.8   974.0    0.00 
 110   15:20   0.61   78.0    33   10.1   279    20.3   974.0    0.00 
 110   15:30   0.58   77.0    34   12.1   270    20.0   974.0    0.00 
 110   15:40   0.55   76.9    34   12.4   274    21.1   973.9    0.00 
 110   15:50   0.52   77.0    34   10.3   271    18.6   973.8    0.00 
 110   16:00   0.48   76.0    34   15.0   275    21.1   973.8    0.00 
 110   16:10   0.45   75.7    35   10.5   272    18.1   973.9    0.00 
 110   16:20   0.41   76.3    34    7.8   272    16.6   973.9    0.00 
 110   16:30   0.38   75.7    32   10.2   282    17.6   974.1    0.00 
 110   16:40   0.34   74.7    31   11.2   278    17.5   974.4    0.00 
 110   16:50   0.30   74.8    32    7.7   286    15.7   974.4    0.00 
 110   17:00   0.27   74.4    32    7.1   283    11.6   974.5    0.00 
 110   17:10   0.23   73.5    32    9.0   278    14.3   974.5    0.00 
 110   17:20   0.19   72.8    32    9.5   288    15.2   974.5    0.00 
 110   17:30   0.16   71.8    33    9.7   275    18.0   974.5    0.00 
 110   17:40   0.13   71.3    34    9.5   288    15.7   974.5    0.00 
 110   17:50   0.10   70.4    36    7.7   301    14.5   974.5    0.00 
 110   18:00   0.08   70.1    37    6.7   296    13.0   974.4    0.00 
 110   18:10   0.05   68.9    38    5.7   298    12.0   974.5    0.00 
 110   18:20   0.03   68.2    40    4.7   316     9.9   974.4    0.00 
 110   18:30   0.01   67.4    41    3.2   339     6.8   974.4    0.00 
 110   18:40   0.00   66.7    42    3.0   334     5.0   974.3    0.00 
 110   18:50   0.00   66.3    42    2.5   338     3.8   974.3    0.00 
 110   19:00   0.00   65.2    44    2.0   330     3.2   974.3    0.00 
 110   19:10   0.00   62.6    48    0.8   316     2.1   974.5    0.00 
 110   19:20   0.00   61.4    50    2.2    19     2.6   974.4    0.00 
 110   19:30   0.00   60.3    52    1.8    11     3.3   974.3    0.00 
 110   19:40   0.00   58.7    54    0.8   355     3.2   974.2    0.00 
 110   19:50   0.00   57.8    55    0.8   269     2.6   974.2    0.00 
 110   20:00   0.00   57.1    57    2.0     0     4.4   974.3    0.00 
 110   20:10   0.00   55.3    60    2.8   346     4.7   974.3    0.00 
 110   20:20   0.00   55.3    60    3.0   353     5.0   974.3    0.00 
 110   20:30   0.00   54.6    62    1.5   338     4.1   974.4    0.00 

Return to Sedgwick Reserve graphs page.


Western Regional Climate Center,wrcc@dri.edu